sensor_id;sensor_type;location;lat;lon;timestamp;temperature;humidity
38488;DHT22;57384;51.986;4.458;2023-06-05T00:00:26;15.90;46.60
38488;DHT22;57384;51.986;4.458;2023-06-05T00:03:11;15.80;46.60
38488;DHT22;57384;51.986;4.458;2023-06-05T00:05:55;15.90;46.70
38488;DHT22;57384;51.986;4.458;2023-06-05T00:08:39;15.80;46.60
38488;DHT22;57384;51.986;4.458;2023-06-05T00:11:23;15.80;46.70
38488;DHT22;57384;51.986;4.458;2023-06-05T00:14:07;15.70;46.70
38488;DHT22;57384;51.986;4.458;2023-06-05T00:16:54;15.70;46.70
38488;DHT22;57384;51.986;4.458;2023-06-05T00:19:39;15.60;46.70
38488;DHT22;57384;51.986;4.458;2023-06-05T00:22:26;15.60;46.70
38488;DHT22;57384;51.986;4.458;2023-06-05T00:25:13;15.60;46.80
38488;DHT22;57384;51.986;4.458;2023-06-05T00:27:57;15.50;46.70
38488;DHT22;57384;51.986;4.458;2023-06-05T00:30:42;15.50;46.80
38488;DHT22;57384;51.986;4.458;2023-06-05T00:33:26;15.50;47.50
38488;DHT22;57384;51.986;4.458;2023-06-05T00:36:10;15.40;46.80
38488;DHT22;57384;51.986;4.458;2023-06-05T00:38:55;15.50;47.00
38488;DHT22;57384;51.986;4.458;2023-06-05T00:41:39;15.40;47.00
38488;DHT22;57384;51.986;4.458;2023-06-05T00:44:23;15.40;47.00
38488;DHT22;57384;51.986;4.458;2023-06-05T00:47:07;15.30;47.00
38488;DHT22;57384;51.986;4.458;2023-06-05T00:49:52;15.30;47.00
38488;DHT22;57384;51.986;4.458;2023-06-05T00:52:37;15.30;47.10
38488;DHT22;57384;51.986;4.458;2023-06-05T00:55:24;15.20;47.10
38488;DHT22;57384;51.986;4.458;2023-06-05T00:58:08;15.30;47.20
38488;DHT22;57384;51.986;4.458;2023-06-05T01:00:53;15.20;47.20
38488;DHT22;57384;51.986;4.458;2023-06-05T01:03:38;15.20;47.20
38488;DHT22;57384;51.986;4.458;2023-06-05T01:06:21;15.20;47.30
38488;DHT22;57384;51.986;4.458;2023-06-05T01:09:06;15.10;47.30
38488;DHT22;57384;51.986;4.458;2023-06-05T01:14:44;15.10;47.30
38488;DHT22;57384;51.986;4.458;2023-06-05T01:17:28;15.10;47.40
38488;DHT22;57384;51.986;4.458;2023-06-05T01:20:14;15.10;47.40
38488;DHT22;57384;51.986;4.458;2023-06-05T01:22:58;15.10;47.40
38488;DHT22;57384;51.986;4.458;2023-06-05T01:25:42;15.00;47.40
38488;DHT22;57384;51.986;4.458;2023-06-05T01:28:28;15.00;47.40
38488;DHT22;57384;51.986;4.458;2023-06-05T01:31:13;15.00;47.50
38488;DHT22;57384;51.986;4.458;2023-06-05T01:34:01;15.00;47.50
38488;DHT22;57384;51.986;4.458;2023-06-05T01:36:48;14.90;47.50
38488;DHT22;57384;51.986;4.458;2023-06-05T01:39:32;14.90;47.60
38488;DHT22;57384;51.986;4.458;2023-06-05T01:42:17;14.90;47.60
38488;DHT22;57384;51.986;4.458;2023-06-05T01:45:03;14.80;47.70
38488;DHT22;57384;51.986;4.458;2023-06-05T01:47:48;14.80;47.70
38488;DHT22;57384;51.986;4.458;2023-06-05T01:50:33;14.80;47.70
38488;DHT22;57384;51.986;4.458;2023-06-05T01:53:20;14.80;47.80
38488;DHT22;57384;51.986;4.458;2023-06-05T01:56:04;14.80;47.80
38488;DHT22;57384;51.986;4.458;2023-06-05T01:58:49;14.70;47.70
38488;DHT22;57384;51.986;4.458;2023-06-05T02:01:33;14.70;47.80
38488;DHT22;57384;51.986;4.458;2023-06-05T02:04:17;14.70;47.80
38488;DHT22;57384;51.986;4.458;2023-06-05T02:07:01;14.70;47.90
38488;DHT22;57384;51.986;4.458;2023-06-05T02:09:46;14.60;47.90
38488;DHT22;57384;51.986;4.458;2023-06-05T02:12:32;14.60;47.90
38488;DHT22;57384;51.986;4.458;2023-06-05T02:15:17;14.60;48.00
38488;DHT22;57384;51.986;4.458;2023-06-05T02:18:01;14.50;48.00
38488;DHT22;57384;51.986;4.458;2023-06-05T02:20:46;14.60;48.20
38488;DHT22;57384;51.986;4.458;2023-06-05T02:23:36;14.50;48.30
38488;DHT22;57384;51.986;4.458;2023-06-05T02:26:20;14.50;48.40
38488;DHT22;57384;51.986;4.458;2023-06-05T02:29:04;14.50;48.40
38488;DHT22;57384;51.986;4.458;2023-06-05T02:31:49;14.40;48.50
38488;DHT22;57384;51.986;4.458;2023-06-05T02:34:33;14.40;48.70
38488;DHT22;57384;51.986;4.458;2023-06-05T02:37:17;14.40;48.80
38488;DHT22;57384;51.986;4.458;2023-06-05T02:40:01;14.40;49.00
38488;DHT22;57384;51.986;4.458;2023-06-05T02:42:45;14.40;49.00
38488;DHT22;57384;51.986;4.458;2023-06-05T02:45:30;14.40;49.10
38488;DHT22;57384;51.986;4.458;2023-06-05T02:48:14;14.30;49.20
38488;DHT22;57384;51.986;4.458;2023-06-05T02:50:58;14.30;49.40
38488;DHT22;57384;51.986;4.458;2023-06-05T02:53:43;14.30;49.60
38488;DHT22;57384;51.986;4.458;2023-06-05T02:56:27;14.20;49.70
38488;DHT22;57384;51.986;4.458;2023-06-05T02:59:14;14.20;49.70
38488;DHT22;57384;51.986;4.458;2023-06-05T03:01:58;14.20;49.90
38488;DHT22;57384;51.986;4.458;2023-06-05T03:04:43;14.20;50.00
38488;DHT22;57384;51.986;4.458;2023-06-05T03:07:28;14.20;50.10
38488;DHT22;57384;51.986;4.458;2023-06-05T03:10:12;14.10;50.20
38488;DHT22;57384;51.986;4.458;2023-06-05T03:12:57;14.10;50.20
38488;DHT22;57384;51.986;4.458;2023-06-05T03:15:42;14.10;50.40
38488;DHT22;57384;51.986;4.458;2023-06-05T03:18:27;14.10;50.60
38488;DHT22;57384;51.986;4.458;2023-06-05T03:21:11;14.00;50.60
38488;DHT22;57384;51.986;4.458;2023-06-05T03:23:55;14.00;50.60
38488;DHT22;57384;51.986;4.458;2023-06-05T03:26:40;14.00;50.80
38488;DHT22;57384;51.986;4.458;2023-06-05T03:29:24;14.00;50.70
38488;DHT22;57384;51.986;4.458;2023-06-05T03:32:09;14.00;50.80
38488;DHT22;57384;51.986;4.458;2023-06-05T03:34:53;13.90;50.80
38488;DHT22;57384;51.986;4.458;2023-06-05T03:37:43;14.00;51.00
38488;DHT22;57384;51.986;4.458;2023-06-05T03:40:28;14.00;51.10
38488;DHT22;57384;51.986;4.458;2023-06-05T03:43:12;13.90;51.10
38488;DHT22;57384;51.986;4.458;2023-06-05T03:45:56;13.90;51.20
38488;DHT22;57384;51.986;4.458;2023-06-05T03:48:42;13.90;51.20
38488;DHT22;57384;51.986;4.458;2023-06-05T03:51:26;13.90;51.30
38488;DHT22;57384;51.986;4.458;2023-06-05T03:54:10;13.80;51.30
38488;DHT22;57384;51.986;4.458;2023-06-05T03:56:54;13.80;51.30
38488;DHT22;57384;51.986;4.458;2023-06-05T03:59:38;13.80;51.40
38488;DHT22;57384;51.986;4.458;2023-06-05T04:02:25;13.80;51.50
38488;DHT22;57384;51.986;4.458;2023-06-05T04:05:10;13.80;51.80
38488;DHT22;57384;51.986;4.458;2023-06-05T04:07:54;13.80;51.80
38488;DHT22;57384;51.986;4.458;2023-06-05T04:10:38;13.80;51.90
38488;DHT22;57384;51.986;4.458;2023-06-05T04:13:22;13.70;51.90
38488;DHT22;57384;51.986;4.458;2023-06-05T04:16:06;13.70;52.00
38488;DHT22;57384;51.986;4.458;2023-06-05T04:18:51;13.70;52.00
38488;DHT22;57384;51.986;4.458;2023-06-05T04:21:35;13.70;52.10
38488;DHT22;57384;51.986;4.458;2023-06-05T04:24:19;13.70;52.20
38488;DHT22;57384;51.986;4.458;2023-06-05T04:27:04;13.70;52.20
38488;DHT22;57384;51.986;4.458;2023-06-05T04:29:48;13.70;52.20
38488;DHT22;57384;51.986;4.458;2023-06-05T04:32:35;13.60;52.10
38488;DHT22;57384;51.986;4.458;2023-06-05T04:35:20;13.70;52.20
38488;DHT22;57384;51.986;4.458;2023-06-05T04:38:04;13.70;52.10
38488;DHT22;57384;51.986;4.458;2023-06-05T04:40:50;13.70;52.10
38488;DHT22;57384;51.986;4.458;2023-06-05T04:43:34;13.70;52.20
38488;DHT22;57384;51.986;4.458;2023-06-05T04:46:18;13.70;52.20
38488;DHT22;57384;51.986;4.458;2023-06-05T04:49:02;13.70;52.20
38488;DHT22;57384;51.986;4.458;2023-06-05T04:51:46;13.70;52.20
38488;DHT22;57384;51.986;4.458;2023-06-05T04:54:33;13.80;52.20
38488;DHT22;57384;51.986;4.458;2023-06-05T04:57:17;13.80;52.20
38488;DHT22;57384;51.986;4.458;2023-06-05T05:00:04;13.80;52.10
38488;DHT22;57384;51.986;4.458;2023-06-05T05:02:48;13.80;52.20
38488;DHT22;57384;51.986;4.458;2023-06-05T05:05:33;13.80;52.10
38488;DHT22;57384;51.986;4.458;2023-06-05T05:08:17;13.80;52.20
38488;DHT22;57384;51.986;4.458;2023-06-05T05:11:01;13.80;52.10
38488;DHT22;57384;51.986;4.458;2023-06-05T05:13:46;13.80;52.00
38488;DHT22;57384;51.986;4.458;2023-06-05T05:16:30;13.90;52.00
38488;DHT22;57384;51.986;4.458;2023-06-05T05:19:17;13.90;52.00
38488;DHT22;57384;51.986;4.458;2023-06-05T05:22:01;13.90;52.00
38488;DHT22;57384;51.986;4.458;2023-06-05T05:24:52;14.00;52.00
38488;DHT22;57384;51.986;4.458;2023-06-05T05:30:44;14.10;52.00
38488;DHT22;57384;51.986;4.458;2023-06-05T05:33:28;14.20;52.00
38488;DHT22;57384;51.986;4.458;2023-06-05T05:36:12;14.10;51.90
38488;DHT22;57384;51.986;4.458;2023-06-05T05:38:59;14.20;51.90
38488;DHT22;57384;51.986;4.458;2023-06-05T05:41:46;14.30;51.90
38488;DHT22;57384;51.986;4.458;2023-06-05T06:03:18;14.70;52.00
38488;DHT22;57384;51.986;4.458;2023-06-05T06:06:06;14.90;52.10
38488;DHT22;57384;51.986;4.458;2023-06-05T06:08:52;14.90;52.20
38488;DHT22;57384;51.986;4.458;2023-06-05T06:11:46;15.00;52.20
38488;DHT22;57384;51.986;4.458;2023-06-05T06:14:36;15.10;52.20
38488;DHT22;57384;51.986;4.458;2023-06-05T06:17:26;15.20;52.20
38488;DHT22;57384;51.986;4.458;2023-06-05T06:20:16;15.30;52.10
38488;DHT22;57384;51.986;4.458;2023-06-05T06:26:08;15.50;52.30
38488;DHT22;57384;51.986;4.458;2023-06-05T06:28:55;15.70;52.50
38488;DHT22;57384;51.986;4.458;2023-06-05T06:31:48;15.70;52.50
38488;DHT22;57384;51.986;4.458;2023-06-05T06:34:32;15.80;52.50
38488;DHT22;57384;51.986;4.458;2023-06-05T06:47:02;16.30;52.30
38488;DHT22;57384;51.986;4.458;2023-06-05T06:59:13;16.80;52.10
38488;DHT22;57384;51.986;4.458;2023-06-05T07:02:13;17.00;52.20
38488;DHT22;57384;51.986;4.458;2023-06-05T07:05:13;17.10;52.10
38488;DHT22;57384;51.986;4.458;2023-06-05T07:07:58;17.20;52.10
38488;DHT22;57384;51.986;4.458;2023-06-05T07:10:50;17.30;52.00
38488;DHT22;57384;51.986;4.458;2023-06-05T07:13:44;17.50;52.10
38488;DHT22;57384;51.986;4.458;2023-06-05T07:16:28;17.60;52.00
38488;DHT22;57384;51.986;4.458;2023-06-05T07:19:21;17.70;51.90
38488;DHT22;57384;51.986;4.458;2023-06-05T07:22:06;17.80;51.90
38488;DHT22;57384;51.986;4.458;2023-06-05T07:28:00;18.10;51.80
38488;DHT22;57384;51.986;4.458;2023-06-05T07:31:02;18.20;51.80
38488;DHT22;57384;51.986;4.458;2023-06-05T07:33:49;18.30;51.70
38488;DHT22;57384;51.986;4.458;2023-06-05T07:36:36;18.50;51.70
38488;DHT22;57384;51.986;4.458;2023-06-05T07:39:41;18.70;51.70
38488;DHT22;57384;51.986;4.458;2023-06-05T07:42:25;18.80;51.60
38488;DHT22;57384;51.986;4.458;2023-06-05T07:45:16;19.00;51.60
38488;DHT22;57384;51.986;4.458;2023-06-05T07:48:01;19.10;51.40
38488;DHT22;57384;51.986;4.458;2023-06-05T07:56:47;19.60;51.30
38488;DHT22;57384;51.986;4.458;2023-06-05T07:59:31;19.70;51.20
38488;DHT22;57384;51.986;4.458;2023-06-05T08:02:19;19.90;51.10
38488;DHT22;57384;51.986;4.458;2023-06-05T08:05:09;20.10;51.00
38488;DHT22;57384;51.986;4.458;2023-06-05T08:07:56;20.30;51.00
38488;DHT22;57384;51.986;4.458;2023-06-05T08:10:51;20.50;51.00
38488;DHT22;57384;51.986;4.458;2023-06-05T08:13:38;20.70;50.90
38488;DHT22;57384;51.986;4.458;2023-06-05T08:16:22;20.90;50.90
38488;DHT22;57384;51.986;4.458;2023-06-05T08:22:09;21.20;50.60
38488;DHT22;57384;51.986;4.458;2023-06-05T08:24:54;21.40;50.50
38488;DHT22;57384;51.986;4.458;2023-06-05T08:27:47;21.60;50.40
38488;DHT22;57384;51.986;4.458;2023-06-05T08:43:06;22.30;49.90
38488;DHT22;57384;51.986;4.458;2023-06-05T08:52:09;22.90;49.60
38488;DHT22;57384;51.986;4.458;2023-06-05T09:01:13;23.40;49.30
38488;DHT22;57384;51.986;4.458;2023-06-05T09:07:15;23.70;48.90
38488;DHT22;57384;51.986;4.458;2023-06-05T09:10:05;23.90;48.90
38488;DHT22;57384;51.986;4.458;2023-06-05T09:12:59;24.10;48.80
38488;DHT22;57384;51.986;4.458;2023-06-05T09:18:57;24.50;48.80
38488;DHT22;57384;51.986;4.458;2023-06-05T09:24:50;24.90;48.70
38488;DHT22;57384;51.986;4.458;2023-06-05T09:30:53;25.20;48.40
38488;DHT22;57384;51.986;4.458;2023-06-05T09:34:23;25.30;48.20
38488;DHT22;57384;51.986;4.458;2023-06-05T09:40:15;25.60;48.00
38488;DHT22;57384;51.986;4.458;2023-06-05T09:46:28;25.90;47.70
38488;DHT22;57384;51.986;4.458;2023-06-05T09:49:14;26.10;47.60
38488;DHT22;57384;51.986;4.458;2023-06-05T09:52:06;26.20;47.40
38488;DHT22;57384;51.986;4.458;2023-06-05T10:01:08;26.50;46.90
38488;DHT22;57384;51.986;4.458;2023-06-05T10:07:11;26.70;46.60
38488;DHT22;57384;51.986;4.458;2023-06-05T13:40:34;35.10;36.50
38488;DHT22;57384;51.986;4.458;2023-06-05T13:43:25;35.10;36.30
38488;DHT22;57384;51.986;4.458;2023-06-05T13:46:15;35.20;36.20
38488;DHT22;57384;51.986;4.458;2023-06-05T13:49:06;35.30;36.10
38488;DHT22;57384;51.986;4.458;2023-06-05T13:51:57;35.30;35.90
38488;DHT22;57384;51.986;4.458;2023-06-05T13:54:53;35.40;35.80
38488;DHT22;57384;51.986;4.458;2023-06-05T13:57:43;35.40;35.60
38488;DHT22;57384;51.986;4.458;2023-06-05T14:06:52;35.50;35.30
38488;DHT22;57384;51.986;4.458;2023-06-05T14:09:42;35.50;35.00
38488;DHT22;57384;51.986;4.458;2023-06-05T14:12:33;35.50;34.90
38488;DHT22;57384;51.986;4.458;2023-06-05T14:15:24;35.50;34.70
38488;DHT22;57384;51.986;4.458;2023-06-05T14:18:14;35.50;34.50
38488;DHT22;57384;51.986;4.458;2023-06-05T14:21:04;35.50;34.40
38488;DHT22;57384;51.986;4.458;2023-06-05T14:23:55;35.50;34.40
38488;DHT22;57384;51.986;4.458;2023-06-05T14:26:45;35.50;34.40
38488;DHT22;57384;51.986;4.458;2023-06-05T14:29:35;35.50;34.40
38488;DHT22;57384;51.986;4.458;2023-06-05T14:32:05;35.40;34.40
38488;DHT22;57384;51.986;4.458;2023-06-05T14:34:32;35.40;34.30
38488;DHT22;57384;51.986;4.458;2023-06-05T14:36:58;35.30;34.20
38488;DHT22;57384;51.986;4.458;2023-06-05T14:39:24;35.30;34.20
38488;DHT22;57384;51.986;4.458;2023-06-05T14:41:51;35.30;34.10
38488;DHT22;57384;51.986;4.458;2023-06-05T14:44:17;35.20;33.90
38488;DHT22;57384;51.986;4.458;2023-06-05T14:46:44;35.20;33.80
38488;DHT22;57384;51.986;4.458;2023-06-05T14:49:10;35.10;33.70
38488;DHT22;57384;51.986;4.458;2023-06-05T14:51:38;35.10;33.80
38488;DHT22;57384;51.986;4.458;2023-06-05T14:54:07;35.00;33.80
38488;DHT22;57384;51.986;4.458;2023-06-05T14:56:34;34.90;33.80
38488;DHT22;57384;51.986;4.458;2023-06-05T14:59:00;34.90;33.80
38488;DHT22;57384;51.986;4.458;2023-06-05T15:01:44;34.70;33.70
38488;DHT22;57384;51.986;4.458;2023-06-05T15:04:11;34.60;33.70
38488;DHT22;57384;51.986;4.458;2023-06-05T15:06:37;34.60;33.70
38488;DHT22;57384;51.986;4.458;2023-06-05T15:09:04;34.50;33.70
38488;DHT22;57384;51.986;4.458;2023-06-05T15:11:30;34.50;33.70
38488;DHT22;57384;51.986;4.458;2023-06-05T15:13:57;34.30;33.60
38488;DHT22;57384;51.986;4.458;2023-06-05T15:16:23;34.20;33.70
38488;DHT22;57384;51.986;4.458;2023-06-05T15:18:50;34.10;33.80
38488;DHT22;57384;51.986;4.458;2023-06-05T15:21:16;33.90;33.90
38488;DHT22;57384;51.986;4.458;2023-06-05T15:23:43;33.70;33.80
38488;DHT22;57384;51.986;4.458;2023-06-05T15:26:09;33.60;34.00
38488;DHT22;57384;51.986;4.458;2023-06-05T15:28:36;33.40;34.00
38488;DHT22;57384;51.986;4.458;2023-06-05T15:31:02;33.20;34.00
38488;DHT22;57384;51.986;4.458;2023-06-05T15:33:29;33.00;34.10
38488;DHT22;57384;51.986;4.458;2023-06-05T15:35:55;32.80;34.20
38488;DHT22;57384;51.986;4.458;2023-06-05T15:38:23;32.70;34.20
38488;DHT22;57384;51.986;4.458;2023-06-05T15:40:50;32.70;34.30
38488;DHT22;57384;51.986;4.458;2023-06-05T15:43:16;32.50;34.10
38488;DHT22;57384;51.986;4.458;2023-06-05T15:45:43;32.50;34.20
38488;DHT22;57384;51.986;4.458;2023-06-05T15:48:09;32.40;34.10
38488;DHT22;57384;51.986;4.458;2023-06-05T15:50:36;32.40;34.10
38488;DHT22;57384;51.986;4.458;2023-06-05T15:53:02;32.30;34.10
38488;DHT22;57384;51.986;4.458;2023-06-05T15:55:29;32.20;34.10
38488;DHT22;57384;51.986;4.458;2023-06-05T15:57:55;32.10;34.20
38488;DHT22;57384;51.986;4.458;2023-06-05T16:00:22;31.90;34.20
38488;DHT22;57384;51.986;4.458;2023-06-05T16:02:49;31.70;34.20
38488;DHT22;57384;51.986;4.458;2023-06-05T16:05:15;31.60;34.40
38488;DHT22;57384;51.986;4.458;2023-06-05T16:07:42;31.40;34.60
38488;DHT22;57384;51.986;4.458;2023-06-05T16:10:08;31.20;34.70
38488;DHT22;57384;51.986;4.458;2023-06-05T16:12:35;31.00;34.70
38488;DHT22;57384;51.986;4.458;2023-06-05T16:15:02;30.80;34.90
38488;DHT22;57384;51.986;4.458;2023-06-05T16:17:28;30.60;35.00
38488;DHT22;57384;51.986;4.458;2023-06-05T16:19:55;30.40;35.10
38488;DHT22;57384;51.986;4.458;2023-06-05T16:22:22;30.20;35.30
38488;DHT22;57384;51.986;4.458;2023-06-05T16:24:48;30.00;35.40
38488;DHT22;57384;51.986;4.458;2023-06-05T16:27:15;29.80;35.50
38488;DHT22;57384;51.986;4.458;2023-06-05T16:29:41;29.60;35.60
38488;DHT22;57384;51.986;4.458;2023-06-05T16:32:08;29.40;35.70
38488;DHT22;57384;51.986;4.458;2023-06-05T16:34:36;29.20;35.80
38488;DHT22;57384;51.986;4.458;2023-06-05T16:37:05;29.00;35.90
38488;DHT22;57384;51.986;4.458;2023-06-05T16:39:31;28.80;36.10
38488;DHT22;57384;51.986;4.458;2023-06-05T16:41:58;28.70;36.20
38488;DHT22;57384;51.986;4.458;2023-06-05T16:44:24;28.50;36.40
38488;DHT22;57384;51.986;4.458;2023-06-05T16:46:51;28.30;36.50
38488;DHT22;57384;51.986;4.458;2023-06-05T16:49:17;28.10;36.60
38488;DHT22;57384;51.986;4.458;2023-06-05T16:51:44;27.90;36.60
38488;DHT22;57384;51.986;4.458;2023-06-05T16:54:10;27.80;36.90
38488;DHT22;57384;51.986;4.458;2023-06-05T16:56:39;27.60;36.90
38488;DHT22;57384;51.986;4.458;2023-06-05T16:59:11;27.50;37.10
38488;DHT22;57384;51.986;4.458;2023-06-05T17:01:38;27.30;37.10
38488;DHT22;57384;51.986;4.458;2023-06-05T17:04:05;27.20;37.30
38488;DHT22;57384;51.986;4.458;2023-06-05T17:06:31;27.00;37.40
38488;DHT22;57384;51.986;4.458;2023-06-05T17:08:58;26.80;37.50
38488;DHT22;57384;51.986;4.458;2023-06-05T17:11:24;26.70;37.70
38488;DHT22;57384;51.986;4.458;2023-06-05T17:13:51;26.50;37.80
38488;DHT22;57384;51.986;4.458;2023-06-05T17:16:18;26.40;37.90
38488;DHT22;57384;51.986;4.458;2023-06-05T17:18:44;26.20;38.00
38488;DHT22;57384;51.986;4.458;2023-06-05T17:21:11;26.10;38.00
38488;DHT22;57384;51.986;4.458;2023-06-05T17:23:37;26.00;38.10
38488;DHT22;57384;51.986;4.458;2023-06-05T17:26:04;25.80;38.30
38488;DHT22;57384;51.986;4.458;2023-06-05T17:28:30;25.70;38.40
38488;DHT22;57384;51.986;4.458;2023-06-05T17:30:57;25.60;38.50
38488;DHT22;57384;51.986;4.458;2023-06-05T17:33:26;25.40;38.60
38488;DHT22;57384;51.986;4.458;2023-06-05T17:35:55;25.30;38.80
38488;DHT22;57384;51.986;4.458;2023-06-05T17:38:22;25.10;38.80
38488;DHT22;57384;51.986;4.458;2023-06-05T17:40:48;25.00;38.90
38488;DHT22;57384;51.986;4.458;2023-06-05T17:43:18;24.90;39.10
38488;DHT22;57384;51.986;4.458;2023-06-05T17:45:44;24.80;39.20
38488;DHT22;57384;51.986;4.458;2023-06-05T17:48:11;24.70;39.40
38488;DHT22;57384;51.986;4.458;2023-06-05T17:50:38;24.50;39.40
38488;DHT22;57384;51.986;4.458;2023-06-05T17:53:04;24.40;39.60
38488;DHT22;57384;51.986;4.458;2023-06-05T17:55:34;24.40;39.70
38488;DHT22;57384;51.986;4.458;2023-06-05T17:58:01;24.20;39.80
38488;DHT22;57384;51.986;4.458;2023-06-05T18:00:27;24.10;39.80
38488;DHT22;57384;51.986;4.458;2023-06-05T18:02:54;23.90;39.90
38488;DHT22;57384;51.986;4.458;2023-06-05T18:05:20;23.90;40.20
38488;DHT22;57384;51.986;4.458;2023-06-05T18:07:47;23.80;40.20
38488;DHT22;57384;51.986;4.458;2023-06-05T18:10:20;23.60;40.20
38488;DHT22;57384;51.986;4.458;2023-06-05T18:12:46;23.50;40.30
38488;DHT22;57384;51.986;4.458;2023-06-05T18:15:15;23.50;40.40
38488;DHT22;57384;51.986;4.458;2023-06-05T18:17:42;23.30;40.40
38488;DHT22;57384;51.986;4.458;2023-06-05T18:20:13;23.20;41.00
38488;DHT22;57384;51.986;4.458;2023-06-05T18:22:40;23.20;40.50
38488;DHT22;57384;51.986;4.458;2023-06-05T18:25:09;23.10;40.50
38488;DHT22;57384;51.986;4.458;2023-06-05T18:27:35;23.00;40.60
38488;DHT22;57384;51.986;4.458;2023-06-05T18:30:05;22.90;40.70
38488;DHT22;57384;51.986;4.458;2023-06-05T18:32:32;22.80;40.70
38488;DHT22;57384;51.986;4.458;2023-06-05T18:34:58;22.70;40.80
38488;DHT22;57384;51.986;4.458;2023-06-05T18:37:25;22.60;40.90
38488;DHT22;57384;51.986;4.458;2023-06-05T18:39:51;22.50;41.10
38488;DHT22;57384;51.986;4.458;2023-06-05T18:42:18;22.40;41.20
38488;DHT22;57384;51.986;4.458;2023-06-05T18:44:45;22.30;41.30
38488;DHT22;57384;51.986;4.458;2023-06-05T18:47:11;22.20;41.40
38488;DHT22;57384;51.986;4.458;2023-06-05T18:49:38;22.10;41.50
38488;DHT22;57384;51.986;4.458;2023-06-05T18:52:05;22.10;41.60
38488;DHT22;57384;51.986;4.458;2023-06-05T18:54:32;22.00;41.70
38488;DHT22;57384;51.986;4.458;2023-06-05T18:57:01;21.90;41.80
38488;DHT22;57384;51.986;4.458;2023-06-05T18:59:27;21.80;41.80
38488;DHT22;57384;51.986;4.458;2023-06-05T19:01:54;21.70;41.80
38488;DHT22;57384;51.986;4.458;2023-06-05T19:04:21;21.60;41.90
38488;DHT22;57384;51.986;4.458;2023-06-05T19:06:47;21.60;42.00
38488;DHT22;57384;51.986;4.458;2023-06-05T19:09:14;21.40;42.10
38488;DHT22;57384;51.986;4.458;2023-06-05T19:11:40;21.40;42.20
38488;DHT22;57384;51.986;4.458;2023-06-05T19:14:07;21.30;42.30
38488;DHT22;57384;51.986;4.458;2023-06-05T19:16:34;21.20;42.40
38488;DHT22;57384;51.986;4.458;2023-06-05T19:19:00;21.10;42.50
38488;DHT22;57384;51.986;4.458;2023-06-05T19:21:27;21.00;42.60
38488;DHT22;57384;51.986;4.458;2023-06-05T19:23:54;21.00;42.70
38488;DHT22;57384;51.986;4.458;2023-06-05T19:26:20;20.90;42.80
38488;DHT22;57384;51.986;4.458;2023-06-05T19:28:47;20.80;42.90
38488;DHT22;57384;51.986;4.458;2023-06-05T19:31:14;20.70;42.90
38488;DHT22;57384;51.986;4.458;2023-06-05T19:33:43;20.70;43.00
38488;DHT22;57384;51.986;4.458;2023-06-05T19:36:09;20.50;43.10
38488;DHT22;57384;51.986;4.458;2023-06-05T19:38:36;20.50;43.20
38488;DHT22;57384;51.986;4.458;2023-06-05T19:41:03;20.40;43.30
38488;DHT22;57384;51.986;4.458;2023-06-05T19:43:30;20.30;43.30
38488;DHT22;57384;51.986;4.458;2023-06-05T19:45:57;20.30;43.40
38488;DHT22;57384;51.986;4.458;2023-06-05T19:48:23;20.20;43.50
38488;DHT22;57384;51.986;4.458;2023-06-05T19:50:50;20.10;43.50
38488;DHT22;57384;51.986;4.458;2023-06-05T19:53:20;20.00;43.50
38488;DHT22;57384;51.986;4.458;2023-06-05T19:55:50;20.00;43.60
38488;DHT22;57384;51.986;4.458;2023-06-05T20:00:52;19.80;43.80
38488;DHT22;57384;51.986;4.458;2023-06-05T20:03:21;19.70;43.90
38488;DHT22;57384;51.986;4.458;2023-06-05T20:05:48;19.70;44.00
38488;DHT22;57384;51.986;4.458;2023-06-05T20:08:15;19.60;44.00
38488;DHT22;57384;51.986;4.458;2023-06-05T20:10:41;19.50;44.10
38488;DHT22;57384;51.986;4.458;2023-06-05T20:13:11;19.50;44.20
38488;DHT22;57384;51.986;4.458;2023-06-05T20:15:37;19.40;44.20
38488;DHT22;57384;51.986;4.458;2023-06-05T20:18:04;19.40;44.30
38488;DHT22;57384;51.986;4.458;2023-06-05T20:20:32;19.30;44.40
38488;DHT22;57384;51.986;4.458;2023-06-05T20:22:59;19.20;44.40
38488;DHT22;57384;51.986;4.458;2023-06-05T20:25:26;19.10;44.50
38488;DHT22;57384;51.986;4.458;2023-06-05T20:27:52;19.10;44.50
38488;DHT22;57384;51.986;4.458;2023-06-05T20:30:19;19.00;44.60
38488;DHT22;57384;51.986;4.458;2023-06-05T20:32:45;18.90;44.60
38488;DHT22;57384;51.986;4.458;2023-06-05T20:35:12;18.90;44.80
38488;DHT22;57384;51.986;4.458;2023-06-05T20:37:38;18.80;44.80
38488;DHT22;57384;51.986;4.458;2023-06-05T20:40:05;18.70;44.90
38488;DHT22;57384;51.986;4.458;2023-06-05T20:42:32;18.70;45.00
38488;DHT22;57384;51.986;4.458;2023-06-05T20:44:58;18.60;45.10
38488;DHT22;57384;51.986;4.458;2023-06-05T20:47:25;18.50;45.20
38488;DHT22;57384;51.986;4.458;2023-06-05T20:49:52;18.40;45.20
38488;DHT22;57384;51.986;4.458;2023-06-05T20:52:18;18.30;45.20
38488;DHT22;57384;51.986;4.458;2023-06-05T20:54:47;18.30;45.30
38488;DHT22;57384;51.986;4.458;2023-06-05T20:57:14;18.20;45.40
38488;DHT22;57384;51.986;4.458;2023-06-05T20:59:41;18.20;45.60
38488;DHT22;57384;51.986;4.458;2023-06-05T21:02:09;18.10;45.60
38488;DHT22;57384;51.986;4.458;2023-06-05T21:04:35;18.00;45.70
38488;DHT22;57384;51.986;4.458;2023-06-05T21:07:02;18.00;46.40
38488;DHT22;57384;51.986;4.458;2023-06-05T21:09:29;17.90;45.80
38488;DHT22;57384;51.986;4.458;2023-06-05T21:11:55;17.90;45.90
38488;DHT22;57384;51.986;4.458;2023-06-05T21:14:22;17.80;46.00
38488;DHT22;57384;51.986;4.458;2023-06-05T21:16:54;17.70;46.00
38488;DHT22;57384;51.986;4.458;2023-06-05T21:19:20;17.70;46.00
38488;DHT22;57384;51.986;4.458;2023-06-05T21:21:47;17.70;46.10
38488;DHT22;57384;51.986;4.458;2023-06-05T21:24:13;17.60;46.10
38488;DHT22;57384;51.986;4.458;2023-06-05T21:26:40;17.60;46.20
38488;DHT22;57384;51.986;4.458;2023-06-05T21:29:06;17.50;46.30
38488;DHT22;57384;51.986;4.458;2023-06-05T21:31:33;17.40;46.40
38488;DHT22;57384;51.986;4.458;2023-06-05T21:33:59;17.40;46.40
38488;DHT22;57384;51.986;4.458;2023-06-05T21:36:26;17.30;46.40
38488;DHT22;57384;51.986;4.458;2023-06-05T21:38:53;17.30;46.40
38488;DHT22;57384;51.986;4.458;2023-06-05T21:41:19;17.30;46.40
38488;DHT22;57384;51.986;4.458;2023-06-05T21:43:46;17.20;46.50
38488;DHT22;57384;51.986;4.458;2023-06-05T21:46:12;17.20;46.50
38488;DHT22;57384;51.986;4.458;2023-06-05T21:48:39;17.10;46.60
38488;DHT22;57384;51.986;4.458;2023-06-05T21:51:06;17.10;46.60
38488;DHT22;57384;51.986;4.458;2023-06-05T21:53:32;17.00;46.70
38488;DHT22;57384;51.986;4.458;2023-06-05T21:56:02;17.00;46.70
38488;DHT22;57384;51.986;4.458;2023-06-05T21:58:28;16.90;46.70
38488;DHT22;57384;51.986;4.458;2023-06-05T22:00:55;16.90;46.90
38488;DHT22;57384;51.986;4.458;2023-06-05T22:03:21;16.80;46.80